createdAt,value
2022-11-07T00:01:50.821Z,2.20
2022-11-07T00:04:17.727Z,3.57
2022-11-07T00:06:44.703Z,1.97
2022-11-07T00:09:11.613Z,1.43
2022-11-07T00:11:38.480Z,1.07
2022-11-07T00:14:05.356Z,1.50
2022-11-07T00:16:33.325Z,1.37
2022-11-07T00:19:00.175Z,1.30
2022-11-07T00:21:26.992Z,1.43
2022-11-07T00:23:53.837Z,1.80
2022-11-07T00:26:20.699Z,1.70
2022-11-07T00:28:47.607Z,2.00
2022-11-07T00:31:15.475Z,1.70
2022-11-07T00:33:43.080Z,1.83
2022-11-07T00:36:16.796Z,2.00
2022-11-07T00:38:44.434Z,1.93
2022-11-07T00:41:11.539Z,2.17
2022-11-07T00:43:38.560Z,1.47
2022-11-07T00:46:07.445Z,1.73
2022-11-07T00:48:35.324Z,1.70
2022-11-07T00:51:08.964Z,1.40
2022-11-07T00:53:35.907Z,1.60
2022-11-07T00:56:04.243Z,1.80
2022-11-07T00:58:31.751Z,1.73
2022-11-07T01:00:59.296Z,1.50
2022-11-07T01:03:44.981Z,1.50
2022-11-07T01:06:12.030Z,1.50
2022-11-07T01:08:39.094Z,1.60
2022-11-07T01:11:07.392Z,1.43
2022-11-07T01:13:34.591Z,1.20
2022-11-07T01:16:01.471Z,1.20
2022-11-07T01:18:28.731Z,1.40
2022-11-07T01:20:55.486Z,1.10
2022-11-07T01:23:22.987Z,1.27
2022-11-07T01:25:49.776Z,1.20
2022-11-07T01:28:16.587Z,1.13
2022-11-07T01:30:44.397Z,0.90
2022-11-07T01:33:11.915Z,1.00
2022-11-07T01:35:39.387Z,0.93
2022-11-07T01:38:06.347Z,1.00
2022-11-07T01:40:56.504Z,0.90
2022-11-07T01:43:23.269Z,1.07
2022-11-07T01:45:50.042Z,0.90
2022-11-07T01:48:16.905Z,0.60
2022-11-07T01:50:44.789Z,0.73
2022-11-07T01:53:11.845Z,0.80
2022-11-07T01:55:38.773Z,0.77
2022-11-07T01:58:12.471Z,0.83
2022-11-07T02:00:40.389Z,0.90
2022-11-07T02:03:13.552Z,0.80
2022-11-07T02:05:48.372Z,0.90
2022-11-07T02:08:17.591Z,0.80
2022-11-07T02:10:44.540Z,0.63
2022-11-07T02:13:18.866Z,0.80
2022-11-07T02:15:45.734Z,0.87
2022-11-07T02:18:12.841Z,0.87
2022-11-07T02:20:39.705Z,1.30
2022-11-07T02:23:12.312Z,0.70
2022-11-07T02:25:39.505Z,0.67
2022-11-07T02:28:09.601Z,0.90
2022-11-07T02:30:36.991Z,0.70
2022-11-07T02:33:04.150Z,0.80
2022-11-07T02:35:34.941Z,0.70
2022-11-07T02:38:09.033Z,0.90
2022-11-07T02:40:35.968Z,0.80
2022-11-07T02:43:04.556Z,1.07
2022-11-07T02:45:39.335Z,0.80
2022-11-07T02:48:06.376Z,0.87
2022-11-07T02:50:33.405Z,0.93
2022-11-07T02:53:00.295Z,0.70
2022-11-07T02:55:27.043Z,0.60
2022-11-07T02:57:54.201Z,0.60
2022-11-07T03:00:21.065Z,0.70
2022-11-07T03:02:48.000Z,0.73
2022-11-07T03:05:16.589Z,0.70
2022-11-07T03:07:44.515Z,0.80
2022-11-07T03:10:12.147Z,0.80
2022-11-07T03:12:39.203Z,0.70
2022-11-07T03:15:07.818Z,0.77
2022-11-07T03:17:34.756Z,0.70
2022-11-07T03:20:01.563Z,0.63
2022-11-07T03:22:28.382Z,0.80
2022-11-07T03:24:55.145Z,0.70
2022-11-07T03:27:22.394Z,0.80
2022-11-07T03:29:49.384Z,0.70
2022-11-07T03:32:16.557Z,0.97
2022-11-07T03:34:43.312Z,0.87
2022-11-07T03:37:10.114Z,0.80
2022-11-07T03:39:36.854Z,0.70
2022-11-07T03:42:03.846Z,0.90
2022-11-07T03:44:30.706Z,0.90
2022-11-07T03:46:58.480Z,0.83
2022-11-07T03:49:25.248Z,0.67
2022-11-07T03:51:52.023Z,0.70
2022-11-07T03:54:18.789Z,0.73
2022-11-07T03:56:45.845Z,0.80
2022-11-07T03:59:12.658Z,0.80
2022-11-07T04:01:39.530Z,0.90
2022-11-07T04:04:06.549Z,0.80
2022-11-07T04:06:33.278Z,1.00
2022-11-07T04:09:00.078Z,0.83
2022-11-07T04:11:45.482Z,0.83
2022-11-07T04:14:31.051Z,0.60
2022-11-07T04:17:16.622Z,0.60
2022-11-07T04:19:43.439Z,0.90
2022-11-07T04:22:10.584Z,1.60
2022-11-07T04:24:41.483Z,1.60
2022-11-07T04:27:30.623Z,1.37
2022-11-07T04:29:57.709Z,1.20
2022-11-07T04:32:24.882Z,1.00
2022-11-07T04:34:52.682Z,0.90
2022-11-07T04:37:19.852Z,0.77
2022-11-07T04:39:46.679Z,1.00
2022-11-07T04:42:13.514Z,0.90
2022-11-07T04:44:40.630Z,0.77
2022-11-07T04:47:07.421Z,0.80
2022-11-07T04:49:34.254Z,0.60
2022-11-07T04:52:01.107Z,0.90
2022-11-07T04:54:27.855Z,0.87
2022-11-07T04:56:54.660Z,0.83
2022-11-07T04:59:21.636Z,0.90
2022-11-07T05:01:48.528Z,0.87
2022-11-07T05:04:15.482Z,0.70
2022-11-07T05:06:42.305Z,1.07
2022-11-07T05:09:14.430Z,0.87
2022-11-07T05:11:41.210Z,0.90
2022-11-07T05:14:08.533Z,1.10
2022-11-07T05:16:35.842Z,1.20
2022-11-07T05:19:02.627Z,1.80
2022-11-07T05:21:29.376Z,1.40
2022-11-07T05:23:56.211Z,1.00
2022-11-07T05:26:22.972Z,1.00
2022-11-07T05:28:49.827Z,1.13
2022-11-07T05:31:17.963Z,1.93
2022-11-07T05:33:44.770Z,4.30
2022-11-07T05:36:17.398Z,3.23
2022-11-07T05:38:47.008Z,1.80
2022-11-07T05:41:15.055Z,1.63
2022-11-07T05:43:41.909Z,1.10
2022-11-07T05:46:09.641Z,1.20
2022-11-07T05:48:36.816Z,0.90
2022-11-07T05:51:05.247Z,1.00
2022-11-07T05:53:32.434Z,1.40
2022-11-07T05:55:59.530Z,2.27
2022-11-07T05:58:26.296Z,3.30
2022-11-07T06:00:53.046Z,4.27
2022-11-07T06:03:20.569Z,4.30
2022-11-07T06:05:47.669Z,3.13
2022-11-07T06:08:15.018Z,2.97
2022-11-07T06:10:43.091Z,3.23
2022-11-07T06:13:14.163Z,2.57
2022-11-07T06:15:42.445Z,1.90
2022-11-07T06:18:16.763Z,1.60
2022-11-07T06:20:43.746Z,1.40
2022-11-07T06:23:10.764Z,1.40
2022-11-07T06:25:38.038Z,1.37
2022-11-07T06:28:09.443Z,1.33
2022-11-07T06:30:36.945Z,1.30
2022-11-07T06:33:07.077Z,1.20
2022-11-07T06:35:34.863Z,1.17
2022-11-07T06:38:03.540Z,1.00
2022-11-07T06:40:31.034Z,1.33
2022-11-07T06:43:10.404Z,1.77
2022-11-07T06:45:38.389Z,1.70
2022-11-07T06:48:05.425Z,1.40
2022-11-07T06:50:32.400Z,1.33
2022-11-07T06:53:04.065Z,1.77
2022-11-07T06:55:31.030Z,2.07
2022-11-07T06:57:59.220Z,2.90
2022-11-07T07:00:26.512Z,1.90
2022-11-07T07:02:58.321Z,2.77
2022-11-07T07:05:25.931Z,2.23
2022-11-07T07:07:55.087Z,2.10
2022-11-07T07:10:22.767Z,2.30
2022-11-07T07:12:49.552Z,1.87
2022-11-07T07:15:16.379Z,1.30
2022-11-07T07:17:43.180Z,1.10
2022-11-07T07:20:10.716Z,1.10
2022-11-07T07:22:37.617Z,1.40
2022-11-07T07:25:04.722Z,1.23
2022-11-07T07:27:31.575Z,1.60
2022-11-07T07:29:58.321Z,1.70
2022-11-07T07:32:25.263Z,1.97
2022-11-07T07:34:54.576Z,1.90
2022-11-07T07:37:21.419Z,1.90
2022-11-07T07:39:48.313Z,1.47
2022-11-07T07:42:15.106Z,1.63
2022-11-07T07:44:44.815Z,1.90
2022-11-07T07:47:11.836Z,1.90
2022-11-07T07:49:38.793Z,1.30
2022-11-07T07:52:06.110Z,1.70
2022-11-07T07:54:33.075Z,1.80
2022-11-07T07:57:01.409Z,1.50
2022-11-07T07:59:28.255Z,1.50
2022-11-07T08:01:57.163Z,1.00
2022-11-07T08:04:24.251Z,1.10
2022-11-07T08:06:51.056Z,1.53
2022-11-07T08:09:17.892Z,0.97
2022-11-07T08:11:44.673Z,1.07
2022-11-07T08:14:11.828Z,0.70
2022-11-07T08:16:38.755Z,1.07
2022-11-07T08:19:05.588Z,1.43
2022-11-07T08:21:32.800Z,1.20
2022-11-07T08:24:00.892Z,0.97
2022-11-07T08:26:27.759Z,0.80
2022-11-07T08:28:55.078Z,1.00
2022-11-07T08:31:22.090Z,1.00
2022-11-07T08:33:50.181Z,0.80
2022-11-07T08:36:17.006Z,0.90
2022-11-07T08:38:44.080Z,1.17
2022-11-07T08:41:11.201Z,1.50
2022-11-07T08:43:37.988Z,0.87
2022-11-07T08:46:04.957Z,0.97
2022-11-07T08:48:31.767Z,1.03
2022-11-07T08:50:59.392Z,1.03
2022-11-07T08:53:27.056Z,1.50
2022-11-07T08:56:04.538Z,1.27
2022-11-07T08:58:31.712Z,0.77
2022-11-07T09:00:58.760Z,1.00
2022-11-07T09:06:14.109Z,1.40
2022-11-07T09:08:41.109Z,0.90
2022-11-07T09:11:08.806Z,0.87
2022-11-07T09:13:36.284Z,1.10
2022-11-07T09:16:05.015Z,1.00
2022-11-07T09:18:32.409Z,1.27
2022-11-07T09:20:59.677Z,1.50
2022-11-07T09:23:27.600Z,1.07
2022-11-07T09:25:58.225Z,0.90
2022-11-07T09:28:25.108Z,1.13
2022-11-07T09:30:56.765Z,1.00
2022-11-07T09:33:23.867Z,1.10
2022-11-07T09:35:51.368Z,1.07
2022-11-07T09:38:19.142Z,1.10
2022-11-07T09:41:28.343Z,1.27
2022-11-07T09:44:22.110Z,1.53
2022-11-07T09:46:57.629Z,1.00
2022-11-07T09:49:54.636Z,1.17
2022-11-07T09:52:43.766Z,1.17
2022-11-07T09:55:19.213Z,1.33
2022-11-07T09:57:47.389Z,1.13
2022-11-07T10:00:21.592Z,0.87
2022-11-07T10:02:59.757Z,1.00
2022-11-07T10:05:29.291Z,1.30
2022-11-07T10:08:05.293Z,1.50
2022-11-07T10:10:41.309Z,1.00
2022-11-07T10:13:16.944Z,1.50
2022-11-07T10:16:04.801Z,1.03
2022-11-07T10:18:34.546Z,1.20
2022-11-07T10:21:37.121Z,0.90
2022-11-07T10:24:16.047Z,1.00
2022-11-07T10:26:45.284Z,1.00
2022-11-07T10:29:21.515Z,1.07
2022-11-07T10:32:11.986Z,1.07
2022-11-07T10:34:46.985Z,1.10
2022-11-07T10:37:15.696Z,1.03
2022-11-07T10:39:42.483Z,1.30
2022-11-07T10:42:15.422Z,0.97
2022-11-07T10:44:44.594Z,0.90
2022-11-07T10:47:16.200Z,1.00
2022-11-07T10:49:55.281Z,1.27
2022-11-07T10:52:22.316Z,0.90
2022-11-07T10:54:49.274Z,0.93
2022-11-07T10:57:18.865Z,1.00
2022-11-07T10:59:56.217Z,0.93
2022-11-07T11:02:27.493Z,0.87
2022-11-07T11:05:00.548Z,0.93
2022-11-07T11:07:35.522Z,1.30
2022-11-07T11:10:03.432Z,0.80
2022-11-07T11:12:34.699Z,1.00
2022-11-07T11:15:10.640Z,1.00
2022-11-07T11:17:37.600Z,0.80
2022-11-07T11:20:08.454Z,1.00
2022-11-07T11:22:42.539Z,0.77
2022-11-07T11:25:18.370Z,1.10
2022-11-07T11:27:47.591Z,0.90
2022-11-07T11:30:20.560Z,1.33
2022-11-07T11:33:11.898Z,1.00
2022-11-07T11:36:29.114Z,0.80
2022-11-07T11:38:56.168Z,1.70
2022-11-07T11:41:50.062Z,0.90
2022-11-07T11:44:24.096Z,0.93
2022-11-07T11:47:25.642Z,1.00
2022-11-07T11:50:00.795Z,1.03
2022-11-07T11:52:29.627Z,1.00
2022-11-07T11:54:57.724Z,1.00
2022-11-07T11:57:35.764Z,1.00
2022-11-07T12:00:18.621Z,1.10
2022-11-07T12:02:54.687Z,1.00
2022-11-07T12:05:40.385Z,0.90
2022-11-07T12:08:31.627Z,1.03
2022-11-07T12:11:33.279Z,0.90
2022-11-07T12:14:34.055Z,0.80
2022-11-07T12:17:25.956Z,1.30
2022-11-07T12:20:09.762Z,1.03
2022-11-07T12:22:51.802Z,1.03
2022-11-07T12:25:25.629Z,1.17
2022-11-07T12:28:24.708Z,1.30
2022-11-07T12:31:10.346Z,0.87
2022-11-07T12:33:44.175Z,1.10
2022-11-07T12:36:22.885Z,2.97
2022-11-07T12:39:03.786Z,1.57
2022-11-07T12:41:34.570Z,0.90
2022-11-07T12:44:29.263Z,1.10
2022-11-07T12:47:01.550Z,0.93
2022-11-07T12:49:43.452Z,0.90
2022-11-07T12:52:22.378Z,1.00
2022-11-07T12:54:59.476Z,0.90
2022-11-07T12:57:31.516Z,1.10
2022-11-07T13:00:27.653Z,1.70
2022-11-07T13:03:14.844Z,1.30
2022-11-07T13:05:48.108Z,1.60
2022-11-07T13:08:38.498Z,1.70
2022-11-07T13:11:28.918Z,1.30
2022-11-07T13:14:04.395Z,1.00
2022-11-07T13:16:36.556Z,1.30
2022-11-07T13:19:11.363Z,1.23
2022-11-07T13:21:43.167Z,1.07
2022-11-07T13:24:22.033Z,1.27
2022-11-07T13:26:49.174Z,0.97
2022-11-07T13:29:37.232Z,0.93
2022-11-07T13:32:15.441Z,1.17
2022-11-07T13:34:55.411Z,1.03
2022-11-07T13:37:32.968Z,1.33
2022-11-07T13:40:20.644Z,1.20
2022-11-07T13:42:48.930Z,1.53
2022-11-07T13:45:26.724Z,1.10
2022-11-07T13:47:58.016Z,0.90
2022-11-07T13:50:43.806Z,1.00
2022-11-07T13:53:23.358Z,0.90
2022-11-07T13:56:03.171Z,1.90
2022-11-07T13:58:34.743Z,4.33
2022-11-07T14:01:19.700Z,1.30
2022-11-07T14:03:46.535Z,1.20
2022-11-07T14:06:14.946Z,1.30
2022-11-07T14:08:46.499Z,1.10
2022-11-07T14:11:20.661Z,1.00
2022-11-07T14:13:52.313Z,0.90
2022-11-07T14:16:22.874Z,0.60
2022-11-07T14:19:06.999Z,0.57
2022-11-07T14:21:36.600Z,1.10
2022-11-07T14:24:18.017Z,0.97
2022-11-07T14:26:44.880Z,1.10
2022-11-07T14:29:22.404Z,0.77
2022-11-07T14:31:49.234Z,0.60
2022-11-07T14:34:22.076Z,0.83
2022-11-07T14:36:51.292Z,1.13
2022-11-07T14:39:20.158Z,1.33
2022-11-07T14:41:47.570Z,1.00
2022-11-07T14:44:28.362Z,1.17
2022-11-07T14:47:05.343Z,1.30
2022-11-07T14:49:37.898Z,1.07
2022-11-07T14:52:05.762Z,1.27
2022-11-07T14:54:41.495Z,1.37
2022-11-07T14:57:12.284Z,1.17
2022-11-07T14:59:39.372Z,1.10
2022-11-07T15:02:23.239Z,1.40
2022-11-07T15:04:51.530Z,1.00
2022-11-07T15:07:23.269Z,1.40
2022-11-07T15:09:58.730Z,4.57
2022-11-07T15:12:54.906Z,5.40
2022-11-07T15:15:32.249Z,5.63
2022-11-07T15:18:27.599Z,4.63
2022-11-07T15:21:01.079Z,5.00
2022-11-07T15:23:31.834Z,3.23
2022-11-07T15:26:11.547Z,2.13
2022-11-07T15:28:47.797Z,1.80
2022-11-07T15:31:21.625Z,1.90
2022-11-07T15:33:48.804Z,1.43
2022-11-07T15:36:17.047Z,1.40
2022-11-07T15:38:45.237Z,1.27
2022-11-07T15:41:20.121Z,1.10
2022-11-07T15:43:48.057Z,1.20
2022-11-07T15:46:34.307Z,1.37
2022-11-07T15:49:02.551Z,1.57
2022-11-07T15:51:34.448Z,1.20
2022-11-07T15:54:01.945Z,1.20
2022-11-07T15:56:42.954Z,1.77
2022-11-07T15:59:21.945Z,1.50
2022-11-07T16:01:51.918Z,1.13
2022-11-07T16:04:19.168Z,1.00
2022-11-07T16:06:47.714Z,1.27
2022-11-07T16:09:19.111Z,1.30
2022-11-07T16:11:46.565Z,1.00
2022-11-07T16:14:42.324Z,1.20
2022-11-07T16:17:02.790Z,2.60
2022-11-07T16:19:30.893Z,3.37
2022-11-07T16:21:57.710Z,9.30
2022-11-07T16:24:24.547Z,6.53
2022-11-07T16:26:51.842Z,4.53
2022-11-07T16:29:18.612Z,3.53
2022-11-07T16:31:45.427Z,2.37
2022-11-07T16:34:12.698Z,2.93
2022-11-07T16:36:40.457Z,3.03
2022-11-07T16:39:14.670Z,3.47
2022-11-07T16:41:41.513Z,4.10
2022-11-07T16:44:08.412Z,5.57
2022-11-07T16:46:38.635Z,7.87
2022-11-07T16:49:31.461Z,10.03
2022-11-07T16:51:58.792Z,11.37
2022-11-07T16:54:26.053Z,10.30
2022-11-07T16:56:53.275Z,9.27
2022-11-07T16:59:22.519Z,8.73
2022-11-07T17:01:50.928Z,8.50
2022-11-07T17:04:18.146Z,7.87
2022-11-07T17:06:47.561Z,6.97
2022-11-07T17:09:17.093Z,5.90
2022-11-07T17:11:44.540Z,5.20
2022-11-07T17:14:11.829Z,4.57
2022-11-07T17:16:42.219Z,4.13
2022-11-07T17:19:14.196Z,3.40
2022-11-07T17:21:46.233Z,3.80
2022-11-07T17:24:13.663Z,3.20
2022-11-07T17:26:40.644Z,3.03
2022-11-07T17:29:12.003Z,2.50
2022-11-07T17:31:39.030Z,2.60
2022-11-07T17:34:06.143Z,2.20
2022-11-07T17:36:38.090Z,2.57
2022-11-07T17:39:11.487Z,2.40
2022-11-07T17:41:42.567Z,2.83
2022-11-07T17:44:10.488Z,2.70
2022-11-07T17:46:41.447Z,2.90
2022-11-07T17:49:12.598Z,3.27
2022-11-07T17:51:40.751Z,3.13
2022-11-07T17:54:09.349Z,3.30
2022-11-07T17:56:36.864Z,3.47
2022-11-07T17:59:07.168Z,2.90
2022-11-07T18:01:37.250Z,3.17
2022-11-07T18:04:06.184Z,2.53
2022-11-07T18:06:38.847Z,2.43
2022-11-07T18:09:07.253Z,3.57
2022-11-07T18:11:35.253Z,2.77
2022-11-07T18:14:02.464Z,2.70
2022-11-07T18:16:31.828Z,2.60
2022-11-07T18:18:59.846Z,2.23
2022-11-07T18:21:27.612Z,1.80
2022-11-07T18:23:54.467Z,1.87
2022-11-07T18:26:30.444Z,2.90
2022-11-07T18:29:02.019Z,3.17
2022-11-07T18:31:28.892Z,3.40
2022-11-07T18:33:57.886Z,7.03
2022-11-07T18:36:25.437Z,6.80
2022-11-07T18:38:52.397Z,5.43
2022-11-07T18:41:22.130Z,6.20
2022-11-07T18:43:49.854Z,6.33
2022-11-07T18:46:22.116Z,6.20
2022-11-07T18:48:50.702Z,4.60
2022-11-07T18:51:23.730Z,3.47
2022-11-07T18:53:52.285Z,2.40
2022-11-07T18:56:20.340Z,2.83
2022-11-07T18:58:47.314Z,2.30
2022-11-07T19:01:15.360Z,2.10
2022-11-07T19:03:42.829Z,2.07
2022-11-07T19:06:12.954Z,1.87
2022-11-07T19:08:41.746Z,1.37
2022-11-07T19:11:12.123Z,2.10
2022-11-07T19:13:42.155Z,2.10
2022-11-07T19:16:10.800Z,2.00
2022-11-07T19:18:38.208Z,1.90
2022-11-07T19:21:05.212Z,2.43
2022-11-07T19:23:32.463Z,2.53
2022-11-07T19:25:59.262Z,3.93
2022-11-07T19:28:26.510Z,8.60
2022-11-07T19:30:53.857Z,8.10
2022-11-07T19:33:20.712Z,7.50
2022-11-07T19:35:57.342Z,6.37
2022-11-07T19:38:24.334Z,5.73
2022-11-07T19:40:51.100Z,4.70
2022-11-07T19:43:18.435Z,5.17
2022-11-07T19:45:45.570Z,4.93
2022-11-07T19:48:12.464Z,4.70
2022-11-07T19:50:39.256Z,5.13
2022-11-07T19:53:06.989Z,4.63
2022-11-07T19:55:35.414Z,4.87
2022-11-07T19:58:02.302Z,5.50
2022-11-07T20:00:30.164Z,6.03
2022-11-07T20:02:57.196Z,5.13
2022-11-07T20:05:24.194Z,5.33
2022-11-07T20:07:59.388Z,5.57
2022-11-07T20:10:29.141Z,5.40
2022-11-07T20:12:56.007Z,5.20
2022-11-07T20:15:22.983Z,4.90
2022-11-07T20:17:49.787Z,4.53
2022-11-07T20:20:16.585Z,4.37
2022-11-07T20:22:47.647Z,3.93
2022-11-07T20:25:14.831Z,3.47
2022-11-07T20:27:41.896Z,4.00
2022-11-07T20:30:09.709Z,2.70
2022-11-07T20:32:36.515Z,3.10
2022-11-07T20:35:04.103Z,2.73
2022-11-07T20:37:31.123Z,3.00
2022-11-07T20:39:58.092Z,2.80
2022-11-07T20:42:24.950Z,2.20
2022-11-07T20:44:51.789Z,2.40
2022-11-07T20:47:18.705Z,2.50
2022-11-07T20:49:45.483Z,1.83
2022-11-07T20:52:13.334Z,2.57
2022-11-07T20:54:40.338Z,2.20
2022-11-07T20:57:07.274Z,2.90
2022-11-07T20:59:35.167Z,2.67
2022-11-07T21:02:03.792Z,2.50
2022-11-07T21:04:44.499Z,2.53
2022-11-07T21:07:22.692Z,2.90
2022-11-07T21:09:49.767Z,2.30
2022-11-07T21:12:16.822Z,2.70
2022-11-07T21:14:43.629Z,2.10
2022-11-07T21:17:10.467Z,2.30
2022-11-07T21:19:37.547Z,2.23
2022-11-07T21:22:05.104Z,3.07
2022-11-07T21:24:32.169Z,2.23
2022-11-07T21:27:00.305Z,2.67
2022-11-07T21:29:29.775Z,2.40
2022-11-07T21:31:57.142Z,2.00
2022-11-07T21:34:24.314Z,1.77
2022-11-07T21:36:51.302Z,1.90
2022-11-07T21:39:21.056Z,1.77
2022-11-07T21:41:49.137Z,1.83
2022-11-07T21:44:45.911Z,1.47
2022-11-07T21:47:13.172Z,1.50
2022-11-07T21:49:40.042Z,1.40
2022-11-07T21:52:06.847Z,1.43
2022-11-07T21:54:33.584Z,1.30
2022-11-07T21:57:00.386Z,1.70
2022-11-07T21:59:27.313Z,1.47
2022-11-07T22:01:55.272Z,1.43
2022-11-07T22:04:22.303Z,1.90
2022-11-07T22:06:49.220Z,1.43
2022-11-07T22:09:18.873Z,1.60
2022-11-07T22:11:46.116Z,1.50
2022-11-07T22:14:15.971Z,1.80
2022-11-07T22:16:42.837Z,1.40
2022-11-07T22:19:12.672Z,1.63
2022-11-07T22:21:40.358Z,1.40
2022-11-07T22:24:07.681Z,1.77
2022-11-07T22:26:34.602Z,1.67
2022-11-07T22:29:01.451Z,1.60
2022-11-07T22:31:30.771Z,1.60
2022-11-07T22:33:59.100Z,1.70
2022-11-07T22:36:26.115Z,1.60
2022-11-07T22:38:53.025Z,1.70
2022-11-07T22:41:22.033Z,1.80
2022-11-07T22:43:50.214Z,1.80
2022-11-07T22:46:29.384Z,1.90
2022-11-07T22:48:58.063Z,1.80
2022-11-07T22:51:31.272Z,1.63
2022-11-07T22:54:06.757Z,1.53
2022-11-07T22:56:35.323Z,1.80
2022-11-07T22:59:02.563Z,1.50
2022-11-07T23:01:32.387Z,1.90
2022-11-07T23:04:01.038Z,1.83
2022-11-07T23:06:29.096Z,1.53
2022-11-07T23:08:58.203Z,1.63
2022-11-07T23:11:49.568Z,1.50
2022-11-07T23:14:19.970Z,1.30
2022-11-07T23:16:49.891Z,1.50
2022-11-07T23:19:18.666Z,1.30
2022-11-07T23:21:45.650Z,1.57
2022-11-07T23:24:13.267Z,1.50
2022-11-07T23:26:40.394Z,1.30
2022-11-07T23:29:16.344Z,1.43
2022-11-07T23:31:45.676Z,1.33
2022-11-07T23:34:13.489Z,1.17
2022-11-07T23:36:43.790Z,1.70
2022-11-07T23:39:15.556Z,1.40
2022-11-07T23:41:43.047Z,1.77
2022-11-07T23:44:10.843Z,1.43
2022-11-07T23:46:56.826Z,1.17
2022-11-07T23:49:42.163Z,1.57
2022-11-07T23:52:09.051Z,1.27
2022-11-07T23:54:54.363Z,1.23
2022-11-07T23:57:21.286Z,1.20
